Time;durP1;ratioP1;P1;durP2;ratioP2;P2;SDS_P1;SDS_P2;PMS_P1;PMS_P2;Temp;Humidity;BMP_temperature;BMP_pressure;BME280_temperature;BME280_humidity;BME280_pressure;Samples;Min_cycle;Max_cycle;Signal;HPM_P1;HPM_P2
2022/02/06 00:00:59;;;;;;;4.33;1.93;;;;;;;;;;5008160;28;20182;-60
2022/02/06 00:03:32;;;;;;;7.10;2.03;;;;;;;;;;5026574;28;20203;-60
2022/02/06 00:06:00;;;;;;;7.57;2.00;;;;;;;;;;5023733;28;20187;-59
2022/02/06 00:08:26;;;;;;;5.60;2.10;;;;;;;;;;4991871;28;20178;-59
2022/02/06 00:10:52;;;;;;;3.80;1.67;;;;;;;;;;5003881;28;20221;-59
2022/02/06 00:13:18;;;;;;;2.97;1.43;;;;;;;;;;5033108;28;20205;-59
2022/02/06 00:15:45;;;;;;;1.57;1.20;;;;;;;;;;5018540;28;20311;-59
2022/02/06 00:18:11;;;;;;;4.17;1.73;;;;;;;;;;5026916;28;20185;-59
2022/02/06 00:20:50;;;;;;;3.80;1.37;;;;;;;;;;5018634;28;20181;-59
2022/02/06 00:23:19;;;;;;;2.53;1.53;;;;;;;;;;5021794;28;20336;-59
2022/02/06 00:30:59;;;;;;;5.87;1.53;;;;;;;;;;5026689;28;20276;-59
2022/02/06 00:41:22;;;;;;;4.03;1.67;;;;;;;;;;5020890;28;20197;-59
2022/02/06 00:44:02;;;;;;;2.60;1.90;;;;;;;;;;5020316;28;20174;-59
2022/02/06 00:46:29;;;;;;;4.37;2.17;;;;;;;;;;5025833;28;20200;-58
2022/02/06 00:48:58;;;;;;;2.37;1.37;;;;;;;;;;5018492;28;20179;-60
2022/02/06 00:51:43;;;;;;;2.20;1.60;;;;;;;;;;5028191;28;20262;-59
2022/02/06 00:54:09;;;;;;;3.33;1.60;;;;;;;;;;5013985;28;20203;-59
2022/02/06 00:56:39;;;;;;;2.87;1.93;;;;;;;;;;5030340;28;20197;-59
2022/02/06 00:59:05;;;;;;;6.23;1.77;;;;;;;;;;5030865;28;20181;-59
2022/02/06 01:01:31;;;;;;;2.23;1.53;;;;;;;;;;5019430;28;20185;-58
2022/02/06 01:03:57;;;;;;;5.67;2.03;;;;;;;;;;5024641;28;20629;-58
2022/02/06 01:06:23;;;;;;;4.17;1.90;;;;;;;;;;5026028;28;20174;-59
2022/02/06 01:08:49;;;;;;;4.00;1.53;;;;;;;;;;5021093;28;20225;-60
2022/02/06 01:11:16;;;;;;;6.17;1.90;;;;;;;;;;5027936;28;20816;-59
2022/02/06 01:16:31;;;;;;;3.23;1.60;;;;;;;;;;5031804;28;20169;-59
2022/02/06 01:21:53;;;;;;;1.70;1.53;;;;;;;;;;5023246;28;20534;-58
2022/02/06 01:27:16;;;;;;;3.77;1.50;;;;;;;;;;5032582;28;20320;-59
2022/02/06 01:29:56;;;;;;;4.73;1.70;;;;;;;;;;5013495;28;20196;-59
2022/02/06 01:32:29;;;;;;;7.77;2.27;;;;;;;;;;5011208;28;20232;-59
2022/02/06 01:35:04;;;;;;;3.10;1.73;;;;;;;;;;5046158;28;20174;-59
2022/02/06 01:37:38;;;;;;;4.20;1.63;;;;;;;;;;5004276;28;20201;-59
2022/02/06 01:40:11;;;;;;;4.47;2.10;;;;;;;;;;5018446;28;20279;-58
2022/02/06 01:42:58;;;;;;;8.30;2.53;;;;;;;;;;5029225;28;20182;-59
2022/02/06 02:13:23;;;;;;;3.63;1.60;;;;;;;;;;5025203;28;20237;-58
2022/02/06 02:26:53;;;;;;;5.00;1.73;;;;;;;;;;5029103;28;20173;-58
2022/02/06 02:43:18;;;;;;;5.00;2.20;;;;;;;;;;5020453;28;20184;-58
2022/02/06 02:46:07;;;;;;;5.37;1.60;;;;;;;;;;5024881;28;20201;-58
2022/02/06 02:48:34;;;;;;;5.77;1.77;;;;;;;;;;5025897;28;20181;-59
2022/02/06 02:51:05;;;;;;;2.57;1.63;;;;;;;;;;5026119;28;20202;-58
2022/02/06 02:53:47;;;;;;;5.40;2.73;;;;;;;;;;5023996;28;20780;-58
2022/02/06 03:01:47;;;;;;;5.70;1.97;;;;;;;;;;5025323;28;20193;-58
2022/02/06 03:04:18;;;;;;;5.03;1.80;;;;;;;;;;5028439;28;20653;-58
2022/02/06 03:06:47;;;;;;;3.00;2.03;;;;;;;;;;5029152;28;20205;-58
2022/02/06 03:09:23;;;;;;;4.67;2.00;;;;;;;;;;5027125;28;20241;-59
2022/02/06 03:12:01;;;;;;;4.93;1.60;;;;;;;;;;5013688;28;20221;-59
2022/02/06 03:14:48;;;;;;;5.23;1.93;;;;;;;;;;5022780;28;20166;-59
2022/02/06 03:17:32;;;;;;;6.70;2.77;;;;;;;;;;5025669;28;20200;-59
2022/02/06 03:20:11;;;;;;;3.93;1.97;;;;;;;;;;5011126;28;20517;-58
2022/02/06 03:25:36;;;;;;;2.40;1.73;;;;;;;;;;5027325;28;20185;-58
2022/02/06 03:28:02;;;;;;;3.93;1.93;;;;;;;;;;5026931;28;20231;-59
2022/02/06 03:30:36;;;;;;;5.60;2.00;;;;;;;;;;5023363;28;20305;-58
2022/02/06 03:33:02;;;;;;;5.00;1.90;;;;;;;;;;5005521;28;20696;-59
2022/02/06 03:35:31;;;;;;;7.20;2.30;;;;;;;;;;5015681;28;20238;-59
2022/02/06 03:38:05;;;;;;;4.80;2.07;;;;;;;;;;5012084;28;20699;-58
2022/02/06 03:40:40;;;;;;;5.63;2.20;;;;;;;;;;5012424;28;20196;-58
2022/02/06 03:43:24;;;;;;;2.63;1.70;;;;;;;;;;5013891;28;20243;-58
2022/02/06 03:46:03;;;;;;;2.30;2.10;;;;;;;;;;5028856;28;20692;-58
2022/02/06 03:48:47;;;;;;;4.20;2.00;;;;;;;;;;5004771;28;20165;-58
2022/02/06 03:51:22;;;;;;;3.13;2.20;;;;;;;;;;5034770;28;20197;-59
2022/02/06 03:53:54;;;;;;;3.00;2.07;;;;;;;;;;5014804;28;20188;-59
2022/02/06 03:56:28;;;;;;;5.90;2.40;;;;;;;;;;5005950;28;20203;-59
2022/02/06 03:58:57;;;;;;;4.90;2.10;;;;;;;;;;5030644;28;20678;-58
2022/02/06 04:01:23;;;;;;;4.77;2.50;;;;;;;;;;5019784;28;20612;-58
2022/02/06 04:03:57;;;;;;;5.93;1.93;;;;;;;;;;5025122;28;20178;-59
2022/02/06 04:06:30;;;;;;;8.37;2.07;;;;;;;;;;5032373;28;20180;-58
2022/02/06 04:08:57;;;;;;;6.83;2.13;;;;;;;;;;5007344;28;20206;-58
2022/02/06 04:11:47;;;;;;;5.53;2.13;;;;;;;;;;5004431;28;20270;-58
2022/02/06 04:14:43;;;;;;;3.30;1.80;;;;;;;;;;5022166;28;20222;-58
2022/02/06 04:17:18;;;;;;;3.83;3.43;;;;;;;;;;5026162;28;20174;-58
2022/02/06 04:19:54;;;;;;;4.97;2.47;;;;;;;;;;5028157;28;20429;-58
2022/02/06 04:22:21;;;;;;;7.10;2.87;;;;;;;;;;5038128;28;20558;-59
2022/02/06 04:24:58;;;;;;;7.00;2.70;;;;;;;;;;5024718;28;20196;-59
2022/02/06 04:27:24;;;;;;;2.47;2.27;;;;;;;;;;5019189;28;20178;-59
2022/02/06 04:29:53;;;;;;;4.63;2.17;;;;;;;;;;5010525;28;20193;-58
2022/02/06 04:32:29;;;;;;;1.90;1.70;;;;;;;;;;5009055;28;20697;-59
2022/02/06 04:34:56;;;;;;;3.90;1.90;;;;;;;;;;5030584;28;20504;-59
2022/02/06 04:51:57;;;;;;;3.27;2.40;;;;;;;;;;5024836;28;20206;-58
2022/02/06 05:19:29;;;;;;;7.53;2.50;;;;;;;;;;5018036;28;20524;-58
2022/02/06 05:25:14;;;;;;;3.30;2.30;;;;;;;;;;5023897;28;20178;-58
2022/02/06 05:30:32;;;;;;;5.10;2.10;;;;;;;;;;5021117;28;20633;-58
2022/02/06 05:32:59;;;;;;;5.77;3.00;;;;;;;;;;5018162;28;20292;-58
2022/02/06 05:35:33;;;;;;;2.47;2.27;;;;;;;;;;5011024;28;20186;-59
2022/02/06 05:38:05;;;;;;;3.93;2.27;;;;;;;;;;5025374;28;20682;-59
2022/02/06 05:40:33;;;;;;;3.83;1.77;;;;;;;;;;5009584;28;20706;-58
2022/02/06 05:43:00;;;;;;;4.97;2.10;;;;;;;;;;5023514;28;20201;-59
2022/02/06 05:45:32;;;;;;;3.47;1.73;;;;;;;;;;5026080;28;20182;-59
2022/02/06 05:47:58;;;;;;;5.40;1.90;;;;;;;;;;5019889;28;20185;-58
2022/02/06 05:50:29;;;;;;;3.40;1.77;;;;;;;;;;5030117;28;20174;-57
2022/02/06 05:52:59;;;;;;;2.67;2.00;;;;;;;;;;5021429;28;20217;-59
2022/02/06 05:55:37;;;;;;;2.40;1.73;;;;;;;;;;5015327;28;20268;-58
2022/02/06 05:58:07;;;;;;;4.73;2.20;;;;;;;;;;5016866;28;20236;-57
2022/02/06 06:00:33;;;;;;;3.80;2.50;;;;;;;;;;5018614;28;20223;-57
2022/02/06 06:03:06;;;;;;;5.63;2.00;;;;;;;;;;5009220;28;20196;-59
2022/02/06 06:05:59;;;;;;;2.57;1.90;;;;;;;;;;5013539;28;20627;-58
2022/02/06 06:08:48;;;;;;;4.13;1.90;;;;;;;;;;5003972;28;20201;-59
2022/02/06 06:11:14;;;;;;;2.07;1.70;;;;;;;;;;5031399;28;20179;-58
2022/02/06 06:13:46;;;;;;;7.73;2.40;;;;;;;;;;5031314;28;20209;-58
2022/02/06 06:16:15;;;;;;;4.47;2.40;;;;;;;;;;5028992;28;20180;-58
2022/02/06 06:18:48;;;;;;;2.00;1.60;;;;;;;;;;5016834;28;20770;-58
2022/02/06 06:21:14;;;;;;;3.57;1.87;;;;;;;;;;5021599;28;20171;-59
2022/02/06 06:23:43;;;;;;;3.53;1.87;;;;;;;;;;5021653;28;20740;-58
2022/02/06 06:26:16;;;;;;;4.13;1.83;;;;;;;;;;5030782;28;20907;-58
2022/02/06 06:28:45;;;;;;;3.53;2.17;;;;;;;;;;5030270;28;20186;-57
2022/02/06 06:31:23;;;;;;;2.10;1.70;;;;;;;;;;5020681;28;20599;-58
2022/02/06 06:33:55;;;;;;;2.73;1.57;;;;;;;;;;5021128;28;20268;-58
2022/02/06 06:36:33;;;;;;;3.30;2.13;;;;;;;;;;5011203;28;20717;-58
2022/02/06 06:39:01;;;;;;;3.20;1.80;;;;;;;;;;5025587;28;20182;-57
2022/02/06 06:41:27;;;;;;;3.20;1.67;;;;;;;;;;5028464;28;20194;-58
2022/02/06 06:43:57;;;;;;;3.33;1.80;;;;;;;;;;5029626;28;20189;-58
2022/02/06 06:46:29;;;;;;;4.47;1.97;;;;;;;;;;5039203;28;20650;-58
2022/02/06 06:49:08;;;;;;;7.17;2.23;;;;;;;;;;5046213;28;20211;-58
2022/02/06 06:51:40;;;;;;;4.37;2.20;;;;;;;;;;5027178;28;20281;-57
2022/02/06 06:54:12;;;;;;;2.43;1.80;;;;;;;;;;5018979;28;20248;-58
2022/02/06 06:56:47;;;;;;;4.30;2.00;;;;;;;;;;5014413;28;20193;-58
2022/02/06 07:05:05;;;;;;;4.57;1.90;;;;;;;;;;5022984;28;20271;-58
2022/02/06 07:07:37;;;;;;;3.90;2.57;;;;;;;;;;5040051;28;20177;-57
2022/02/06 07:10:05;;;;;;;3.93;2.27;;;;;;;;;;5028757;28;20664;-57
2022/02/06 07:12:34;;;;;;;3.90;1.83;;;;;;;;;;5036563;28;20257;-57
2022/02/06 07:15:03;;;;;;;4.10;2.13;;;;;;;;;;5030499;28;20184;-58
2022/02/06 07:17:35;;;;;;;4.13;1.90;;;;;;;;;;5027176;28;20181;-58
2022/02/06 07:20:05;;;;;;;3.23;2.10;;;;;;;;;;5020032;28;20271;-57
2022/02/06 07:22:36;;;;;;;3.90;1.97;;;;;;;;;;5032094;28;20182;-57
2022/02/06 07:25:03;;;;;;;8.57;2.17;;;;;;;;;;5053052;28;20185;-58
2022/02/06 07:27:33;;;;;;;4.83;1.67;;;;;;;;;;5041967;28;20184;-58
2022/02/06 07:30:04;;;;;;;3.93;1.80;;;;;;;;;;5026889;28;20605;-57
2022/02/06 07:32:59;;;;;;;3.63;1.97;;;;;;;;;;5027285;28;20233;-58
2022/02/06 07:35:37;;;;;;;5.93;2.23;;;;;;;;;;5013220;28;20229;-59
2022/02/06 07:38:11;;;;;;;4.43;1.83;;;;;;;;;;5013037;28;20269;-58
2022/02/06 07:40:37;;;;;;;4.60;1.90;;;;;;;;;;5023823;28;20181;-57
2022/02/06 07:43:04;;;;;;;3.93;2.20;;;;;;;;;;5024210;28;20185;-58
2022/02/06 07:45:35;;;;;;;3.30;2.50;;;;;;;;;;5016692;28;20210;-58
2022/02/06 07:48:09;;;;;;;4.17;2.17;;;;;;;;;;5022623;28;20179;-58
2022/02/06 07:50:36;;;;;;;4.20;1.97;;;;;;;;;;5026202;28;20216;-59
2022/02/06 07:53:09;;;;;;;3.97;2.20;;;;;;;;;;5025644;28;20237;-58
2022/02/06 07:55:43;;;;;;;3.77;2.13;;;;;;;;;;5007566;28;20228;-58
2022/02/06 07:58:15;;;;;;;2.50;1.63;;;;;;;;;;5012590;28;20167;-58
2022/02/06 08:00:41;;;;;;;2.20;1.60;;;;;;;;;;5015382;28;20642;-58
2022/02/06 08:03:14;;;;;;;1.83;1.73;;;;;;;;;;5015155;28;20505;-58
2022/02/06 08:05:43;;;;;;;3.03;2.17;;;;;;;;;;5030867;28;20183;-57
2022/02/06 08:08:14;;;;;;;4.17;1.50;;;;;;;;;;5019222;28;20683;-58
2022/02/06 08:10:46;;;;;;;6.00;1.93;;;;;;;;;;5028012;28;20193;-57
2022/02/06 08:13:28;;;;;;;2.63;1.83;;;;;;;;;;5025841;28;21077;-58
2022/02/06 08:15:54;;;;;;;2.43;1.50;;;;;;;;;;5013498;28;20284;-59
2022/02/06 08:18:23;;;;;;;3.87;2.00;;;;;;;;;;5037380;28;20178;-58
2022/02/06 08:20:55;;;;;;;5.13;1.70;;;;;;;;;;5027713;28;20209;-58
2022/02/06 08:23:21;;;;;;;4.23;1.60;;;;;;;;;;5007287;28;20224;-58
2022/02/06 08:25:47;;;;;;;2.87;2.10;;;;;;;;;;5033816;28;20190;-59
2022/02/06 08:28:19;;;;;;;3.57;1.90;;;;;;;;;;5027579;28;20193;-58
2022/02/06 08:30:51;;;;;;;2.57;1.57;;;;;;;;;;5014997;28;20190;-57
2022/02/06 08:33:18;;;;;;;2.20;1.60;;;;;;;;;;5036611;28;20209;-59
2022/02/06 08:35:55;;;;;;;1.93;1.40;;;;;;;;;;5019221;28;20265;-58
2022/02/06 08:38:23;;;;;;;2.07;1.87;;;;;;;;;;5005961;28;20184;-58
2022/02/06 08:41:00;;;;;;;3.07;1.77;;;;;;;;;;5020428;28;20327;-59
2022/02/06 08:43:41;;;;;;;2.60;1.40;;;;;;;;;;5020258;28;20185;-57
2022/02/06 08:46:07;;;;;;;3.73;1.60;;;;;;;;;;5020414;28;20173;-58
2022/02/06 08:48:40;;;;;;;2.17;1.60;;;;;;;;;;5012321;28;20243;-58
2022/02/06 08:51:06;;;;;;;3.00;1.60;;;;;;;;;;5027722;28;20312;-54
2022/02/06 08:53:36;;;;;;;3.03;1.60;;;;;;;;;;5014941;28;20217;-58
2022/02/06 08:56:05;;;;;;;1.40;1.30;;;;;;;;;;5039219;28;20256;-57
2022/02/06 08:58:39;;;;;;;1.87;1.40;;;;;;;;;;5016173;28;20500;-58
2022/02/06 09:01:05;;;;;;;2.57;1.70;;;;;;;;;;5010802;28;20268;-58
2022/02/06 09:03:44;;;;;;;1.63;1.53;;;;;;;;;;5011896;28;20192;-57
2022/02/06 09:06:12;;;;;;;2.53;1.40;;;;;;;;;;5019123;28;20284;-58
2022/02/06 09:08:38;;;;;;;1.30;1.20;;;;;;;;;;5012667;28;20201;-57
2022/02/06 09:11:08;;;;;;;2.33;1.33;;;;;;;;;;5027905;28;20184;-58
2022/02/06 09:13:41;;;;;;;3.33;1.40;;;;;;;;;;5038198;28;20813;-58
2022/02/06 09:16:10;;;;;;;2.80;1.77;;;;;;;;;;5011912;28;21337;-58
2022/02/06 09:18:36;;;;;;;2.97;1.67;;;;;;;;;;5007171;28;20190;-58
2022/02/06 09:21:03;;;;;;;1.57;1.27;;;;;;;;;;5021376;28;20186;-58
2022/02/06 09:23:29;;;;;;;2.73;1.40;;;;;;;;;;5030657;28;20205;-59
2022/02/06 09:26:00;;;;;;;1.83;1.33;;;;;;;;;;5022090;28;20209;-58
2022/02/06 09:28:38;;;;;;;2.60;1.30;;;;;;;;;;5028495;28;20580;-58
2022/02/06 09:31:13;;;;;;;2.50;1.60;;;;;;;;;;5015604;28;20597;-58
2022/02/06 09:36:11;;;;;;;1.40;1.30;;;;;;;;;;5038632;28;20174;-58
2022/02/06 09:38:57;;;;;;;2.70;1.37;;;;;;;;;;5038192;28;20625;-58
2022/02/06 09:41:24;;;;;;;1.17;1.13;;;;;;;;;;5023260;28;20550;-58
2022/02/06 09:43:54;;;;;;;1.70;1.60;;;;;;;;;;5027320;28;20716;-58
2022/02/06 09:46:22;;;;;;;2.00;1.40;;;;;;;;;;5010424;28;20174;-59
2022/02/06 09:48:49;;;;;;;2.80;1.50;;;;;;;;;;5025356;28;20644;-59
2022/02/06 09:51:15;;;;;;;6.07;1.90;;;;;;;;;;5022134;28;20191;-57
2022/02/06 09:53:48;;;;;;;4.00;1.27;;;;;;;;;;5011851;28;20217;-57
2022/02/06 09:56:15;;;;;;;3.17;1.60;;;;;;;;;;5017199;28;20300;-58
2022/02/06 09:58:57;;;;;;;1.60;1.40;;;;;;;;;;5018186;28;20669;-58
2022/02/06 10:01:25;;;;;;;1.83;1.47;;;;;;;;;;5022220;28;20572;-59
2022/02/06 10:04:09;;;;;;;1.80;1.30;;;;;;;;;;5002190;28;20277;-59
2022/02/06 10:10:08;;;;;;;1.17;1.07;;;;;;;;;;4984980;28;20191;-59
2022/02/06 10:12:39;;;;;;;1.53;1.17;;;;;;;;;;5011135;28;20623;-59
2022/02/06 10:15:07;;;;;;;1.40;1.30;;;;;;;;;;4978335;28;20179;-60
2022/02/06 10:17:36;;;;;;;2.33;1.37;;;;;;;;;;5008496;28;20653;-60
2022/02/06 10:20:11;;;;;;;1.30;1.20;;;;;;;;;;4977608;28;20178;-59
2022/02/06 10:23:01;;;;;;;1.60;1.10;;;;;;;;;;5001281;28;20607;-59
2022/02/06 10:25:40;;;;;;;2.07;1.43;;;;;;;;;;4996124;28;20198;-58
2022/02/06 10:28:43;;;;;;;2.40;1.10;;;;;;;;;;5006484;28;20644;-59
2022/02/06 10:31:20;;;;;;;2.67;1.50;;;;;;;;;;4971997;28;20273;-60
2022/02/06 10:33:58;;;;;;;1.57;1.00;;;;;;;;;;5015762;28;20240;-59
2022/02/06 10:36:36;;;;;;;2.13;1.13;;;;;;;;;;4983515;28;20220;-59
2022/02/06 10:39:10;;;;;;;3.00;1.10;;;;;;;;;;5032522;28;20185;-59
2022/02/06 10:41:43;;;;;;;1.30;1.20;;;;;;;;;;5027524;28;20192;-59
2022/02/06 10:44:13;;;;;;;2.03;1.20;;;;;;;;;;5034402;28;20182;-59
2022/02/06 10:46:42;;;;;;;1.47;1.20;;;;;;;;;;5037900;28;20614;-59
2022/02/06 10:49:13;;;;;;;3.63;1.10;;;;;;;;;;5016507;28;20190;-59
2022/02/06 10:51:53;;;;;;;1.20;1.10;;;;;;;;;;5014739;28;20206;-59
2022/02/06 10:54:34;;;;;;;1.00;1.00;;;;;;;;;;5020985;28;20228;-59
2022/02/06 10:57:18;;;;;;;1.70;1.00;;;;;;;;;;5021663;28;20208;-59
2022/02/06 10:59:47;;;;;;;1.00;1.00;;;;;;;;;;5021553;28;20326;-59
2022/02/06 11:02:22;;;;;;;4.10;1.10;;;;;;;;;;5022819;28;20190;-59
2022/02/06 11:05:23;;;;;;;0.90;0.90;;;;;;;;;;5022703;28;20190;-59
2022/02/06 11:08:01;;;;;;;0.90;0.90;;;;;;;;;;4999101;28;20209;-59
2022/02/06 11:10:35;;;;;;;1.00;0.90;;;;;;;;;;5004145;28;20189;-60
2022/02/06 11:13:05;;;;;;;1.13;1.00;;;;;;;;;;5017348;28;20230;-59
2022/02/06 11:15:38;;;;;;;0.87;0.87;;;;;;;;;;5018943;28;20712;-59
2022/02/06 11:18:19;;;;;;;1.83;1.10;;;;;;;;;;5015457;28;20178;-59
2022/02/06 11:21:07;;;;;;;1.30;0.90;;;;;;;;;;5014589;28;20680;-60
2022/02/06 11:23:39;;;;;;;0.80;0.80;;;;;;;;;;5017118;28;20724;-60
2022/02/06 11:26:07;;;;;;;2.40;1.03;;;;;;;;;;5028051;28;20201;-60
2022/02/06 11:28:34;;;;;;;1.43;0.90;;;;;;;;;;5015488;28;20266;-59
2022/02/06 11:31:08;;;;;;;0.90;0.90;;;;;;;;;;5016271;28;20187;-60
2022/02/06 11:33:38;;;;;;;1.40;0.87;;;;;;;;;;5013678;28;20279;-60
2022/02/06 11:45:19;;;;;;;1.77;0.83;;;;;;;;;;5027737;28;20180;-61
2022/02/06 11:47:51;;;;;;;0.67;0.63;;;;;;;;;;5026439;28;20186;-60
2022/02/06 11:50:25;;;;;;;2.23;1.00;;;;;;;;;;5020794;28;20231;-59
2022/02/06 11:53:09;;;;;;;;;;;;;;;;;;;;;
2022/02/06 11:55:50;;;;;;;1.13;0.77;;;;;;;;;;5028895;28;20162;-59
2022/02/06 11:58:28;;;;;;;4.23;1.20;;;;;;;;;;5009684;28;20199;-59
2022/02/06 12:01:09;;;;;;;0.90;0.90;;;;;;;;;;5019050;28;20181;-59
2022/02/06 12:03:54;;;;;;;1.03;1.03;;;;;;;;;;5032193;28;20182;-59
2022/02/06 12:06:24;;;;;;;1.83;1.00;;;;;;;;;;5025431;28;20545;-59
2022/02/06 12:08:59;;;;;;;1.30;1.10;;;;;;;;;;5025601;28;20315;-59
2022/02/06 12:11:36;;;;;;;2.60;1.10;;;;;;;;;;5038619;28;20538;-60
2022/02/06 12:14:08;;;;;;;1.73;1.20;;;;;;;;;;5047562;28;20218;-59
2022/02/06 12:16:50;;;;;;;0.80;0.80;;;;;;;;;;5018515;28;20646;-59
2022/02/06 12:19:26;;;;;;;0.90;0.73;;;;;;;;;;5025797;28;20166;-59
2022/02/06 12:22:12;;;;;;;1.20;1.10;;;;;;;;;;5019675;28;20624;-59
2022/02/06 12:24:49;;;;;;;1.20;1.10;;;;;;;;;;5017740;28;20213;-60
2022/02/06 12:27:30;;;;;;;1.10;1.03;;;;;;;;;;5011249;28;20197;-59
2022/02/06 12:30:06;;;;;;;1.70;1.20;;;;;;;;;;5023256;28;20410;-60
2022/02/06 12:32:39;;;;;;;0.90;0.90;;;;;;;;;;5016716;28;20485;-59
2022/02/06 12:38:08;;;;;;;2.10;1.03;;;;;;;;;;5016986;28;20262;-59
2022/02/06 12:40:34;;;;;;;3.80;1.00;;;;;;;;;;5026664;28;20181;-60
2022/02/06 12:43:07;;;;;;;1.10;1.00;;;;;;;;;;5016609;28;20186;-59
2022/02/06 12:45:39;;;;;;;1.10;1.00;;;;;;;;;;5017781;28;20220;-59
2022/02/06 12:48:07;;;;;;;1.10;1.10;;;;;;;;;;5015983;28;20212;-60
2022/02/06 12:50:40;;;;;;;1.20;1.10;;;;;;;;;;5022747;28;20217;-58
2022/02/06 12:53:10;;;;;;;1.20;1.07;;;;;;;;;;5024440;28;20688;-58
2022/02/06 12:55:46;;;;;;;3.60;1.13;;;;;;;;;;5025352;28;20594;-58
2022/02/06 12:58:13;;;;;;;1.97;1.30;;;;;;;;;;5015908;28;20220;-58
2022/02/06 13:00:48;;;;;;;1.77;1.17;;;;;;;;;;5025447;28;20190;-58
2022/02/06 13:03:24;;;;;;;1.57;1.40;;;;;;;;;;5006956;28;20593;-58
2022/02/06 13:06:02;;;;;;;2.13;1.60;;;;;;;;;;5007219;28;20198;-58
2022/02/06 13:08:38;;;;;;;3.40;1.43;;;;;;;;;;5016572;28;20185;-58
2022/02/06 13:11:10;;;;;;;1.43;1.33;;;;;;;;;;5026068;28;20260;-58
2022/02/06 13:13:48;;;;;;;0.90;0.90;;;;;;;;;;5007689;28;20800;-58
2022/02/06 13:16:34;;;;;;;2.47;1.53;;;;;;;;;;5009072;28;20231;-58
2022/02/06 13:19:32;;;;;;;1.20;1.00;;;;;;;;;;5027122;28;20216;-58
2022/02/06 13:33:23;;;;;;;1.97;0.90;;;;;;;;;;5026347;28;20198;-58
2022/02/06 13:36:06;;;;;;;1.27;0.70;;;;;;;;;;5023344;28;20244;-58
2022/02/06 13:38:34;;;;;;;0.70;0.70;;;;;;;;;;5023959;28;20255;-58
2022/02/06 13:41:17;;;;;;;0.73;0.63;;;;;;;;;;5009483;28;20429;-58
2022/02/06 13:43:49;;;;;;;2.53;1.10;;;;;;;;;;5025046;28;20894;-57
2022/02/06 13:46:17;;;;;;;0.90;0.90;;;;;;;;;;5022905;28;20190;-57
2022/02/06 13:48:47;;;;;;;0.70;0.70;;;;;;;;;;5018000;28;20204;-57
2022/02/06 13:51:17;;;;;;;0.70;0.70;;;;;;;;;;5030377;28;20235;-58
2022/02/06 13:54:01;;;;;;;0.83;0.70;;;;;;;;;;5020257;28;20229;-58
2022/02/06 13:56:28;;;;;;;0.90;0.67;;;;;;;;;;5028523;28;20202;-58
2022/02/06 13:59:04;;;;;;;0.97;0.80;;;;;;;;;;5018871;28;20595;-58
2022/02/06 14:01:56;;;;;;;1.33;0.97;;;;;;;;;;5026257;28;20161;-58
2022/02/06 14:04:24;;;;;;;0.70;0.70;;;;;;;;;;5017474;28;20186;-58
2022/02/06 14:10:06;;;;;;;1.20;0.87;;;;;;;;;;5021088;28;20197;-57
2022/02/06 14:13:02;;;;;;;3.20;1.23;;;;;;;;;;4980167;28;20414;-58
2022/02/06 14:15:38;;;;;;;2.13;0.90;;;;;;;;;;4979729;28;20538;-57
2022/02/06 14:18:07;;;;;;;2.53;1.00;;;;;;;;;;4972183;28;20187;-57
2022/02/06 14:20:33;;;;;;;1.90;0.93;;;;;;;;;;4978515;28;20750;-58
2022/02/06 14:23:18;;;;;;;1.20;1.10;;;;;;;;;;4969040;28;20343;-57
2022/02/06 14:25:47;;;;;;;2.57;1.17;;;;;;;;;;4980867;28;20199;-57
2022/02/06 14:28:31;;;;;;;1.20;1.10;;;;;;;;;;4990580;28;20204;-58
2022/02/06 14:30:57;;;;;;;0.80;0.80;;;;;;;;;;4986638;28;20172;-58
2022/02/06 14:33:25;;;;;;;5.03;1.13;;;;;;;;;;4976997;28;20270;-58
2022/02/06 14:35:56;;;;;;;1.30;1.20;;;;;;;;;;4972191;28;20691;-58
2022/02/06 14:38:41;;;;;;;1.77;1.10;;;;;;;;;;4975990;28;20547;-56
2022/02/06 14:41:21;;;;;;;1.07;0.97;;;;;;;;;;4969787;28;20186;-57
2022/02/06 14:44:05;;;;;;;2.33;1.10;;;;;;;;;;4988476;28;20642;-57
2022/02/06 14:46:32;;;;;;;1.40;0.90;;;;;;;;;;4998809;28;20697;-57
2022/02/06 14:48:59;;;;;;;1.60;1.37;;;;;;;;;;4996509;28;20175;-57
2022/02/06 14:51:30;;;;;;;1.20;1.10;;;;;;;;;;4993742;28;20190;-57
2022/02/06 14:54:01;;;;;;;2.53;1.53;;;;;;;;;;5002681;28;20206;-57
2022/02/06 14:56:29;;;;;;;3.57;1.30;;;;;;;;;;4996364;28;20195;-57
2022/02/06 14:58:59;;;;;;;2.83;1.40;;;;;;;;;;4995521;28;20559;-57
2022/02/06 15:01:29;;;;;;;1.83;1.10;;;;;;;;;;4995063;28;20175;-57
2022/02/06 15:03:55;;;;;;;1.33;1.23;;;;;;;;;;4989991;28;20185;-57
2022/02/06 15:06:24;;;;;;;1.37;1.10;;;;;;;;;;4996235;28;20188;-57
2022/02/06 15:09:01;;;;;;;1.97;1.20;;;;;;;;;;5014007;28;20537;-57
2022/02/06 15:11:27;;;;;;;2.70;1.40;;;;;;;;;;5002903;28;20189;-57
2022/02/06 15:13:54;;;;;;;3.80;1.40;;;;;;;;;;5000224;28;20233;-58
2022/02/06 15:16:27;;;;;;;2.20;1.50;;;;;;;;;;5006247;28;20232;-57
2022/02/06 15:19:28;;;;;;;1.70;1.20;;;;;;;;;;5014117;28;20542;-57
2022/02/06 15:21:57;;;;;;;1.73;1.13;;;;;;;;;;5025019;28;20204;-57
2022/02/06 15:24:24;;;;;;;2.03;1.30;;;;;;;;;;5025459;28;20259;-57
2022/02/06 15:26:58;;;;;;;4.07;1.60;;;;;;;;;;5013260;28;20187;-57
2022/02/06 15:29:33;;;;;;;2.23;1.40;;;;;;;;;;5012705;28;20688;-57
2022/02/06 15:32:08;;;;;;;1.37;1.20;;;;;;;;;;5017349;28;20197;-57
2022/02/06 15:34:44;;;;;;;3.80;1.13;;;;;;;;;;5004394;28;20849;-57
2022/02/06 15:37:14;;;;;;;2.70;1.47;;;;;;;;;;5012983;28;20314;-57
2022/02/06 15:39:40;;;;;;;2.37;1.23;;;;;;;;;;5024556;28;20273;-57
2022/02/06 15:42:17;;;;;;;4.90;1.20;;;;;;;;;;5008114;28;20658;-57
2022/02/06 15:44:47;;;;;;;2.80;1.20;;;;;;;;;;5007955;28;20783;-57
2022/02/06 15:47:27;;;;;;;1.77;1.30;;;;;;;;;;5035460;28;20193;-58
2022/02/06 15:49:53;;;;;;;3.70;1.93;;;;;;;;;;5022161;28;20547;-57
2022/02/06 15:52:21;;;;;;;3.87;1.60;;;;;;;;;;5003688;28;20760;-57
2022/02/06 15:54:47;;;;;;;2.30;1.60;;;;;;;;;;5025620;28;20231;-57
2022/02/06 15:57:17;;;;;;;4.50;2.00;;;;;;;;;;5012986;28;20318;-57
2022/02/06 15:59:44;;;;;;;2.97;2.07;;;;;;;;;;5003069;28;20189;-57
2022/02/06 16:02:23;;;;;;;2.77;2.03;;;;;;;;;;5022629;28;20208;-57
2022/02/06 16:04:52;;;;;;;3.77;1.87;;;;;;;;;;5021953;28;20261;-57
2022/02/06 16:07:19;;;;;;;2.70;2.40;;;;;;;;;;5023165;28;20217;-57
2022/02/06 16:09:45;;;;;;;3.83;2.07;;;;;;;;;;5015125;28;20732;-58
2022/02/06 16:12:15;;;;;;;3.57;1.87;;;;;;;;;;5012034;28;20212;-58
2022/02/06 16:14:42;;;;;;;2.67;1.97;;;;;;;;;;5019885;28;20178;-58
2022/02/06 16:17:09;;;;;;;3.23;1.70;;;;;;;;;;5017343;28;20675;-58
2022/02/06 16:19:35;;;;;;;5.63;1.53;;;;;;;;;;5012489;28;20178;-58
2022/02/06 16:22:10;;;;;;;3.03;1.20;;;;;;;;;;5008394;28;20530;-58
2022/02/06 16:24:39;;;;;;;1.43;1.23;;;;;;;;;;5017235;28;20181;-58
2022/02/06 16:27:11;;;;;;;1.50;1.40;;;;;;;;;;5030820;28;20238;-59
2022/02/06 16:29:46;;;;;;;4.07;1.70;;;;;;;;;;5007311;28;20183;-58
2022/02/06 16:32:17;;;;;;;1.33;1.23;;;;;;;;;;5026946;28;20248;-58
2022/02/06 16:34:50;;;;;;;2.50;1.30;;;;;;;;;;5018934;28;20201;-58
2022/02/06 16:37:17;;;;;;;1.30;1.17;;;;;;;;;;5019164;28;20179;-58
2022/02/06 16:39:45;;;;;;;4.03;0.90;;;;;;;;;;5015015;28;20212;-58
2022/02/06 16:42:12;;;;;;;3.43;1.17;;;;;;;;;;5024003;28;20220;-59
2022/02/06 16:44:46;;;;;;;1.10;1.00;;;;;;;;;;5018484;28;20202;-58
2022/02/06 16:47:15;;;;;;;1.87;1.27;;;;;;;;;;5046129;28;20232;-58
2022/02/06 16:49:55;;;;;;;2.70;1.27;;;;;;;;;;5018908;28;20185;-58
2022/02/06 16:52:21;;;;;;;1.73;1.00;;;;;;;;;;5021641;28;20213;-58
2022/02/06 16:54:49;;;;;;;5.03;1.63;;;;;;;;;;5019278;28;20174;-58
2022/02/06 16:57:27;;;;;;;1.87;1.50;;;;;;;;;;5032125;28;20195;-58
2022/02/06 16:59:54;;;;;;;2.60;1.47;;;;;;;;;;5010201;28;20745;-58
2022/02/06 17:02:23;;;;;;;5.23;1.77;;;;;;;;;;5009029;28;20189;-58
2022/02/06 17:04:56;;;;;;;3.47;2.00;;;;;;;;;;5028922;28;20182;-58
2022/02/06 17:07:22;;;;;;;4.75;2.63;;;;;;;;;;5030421;28;20899;-56
2022/02/06 17:09:48;;;;;;;6.07;2.10;;;;;;;;;;5016079;28;20264;-57
2022/02/06 17:12:14;;;;;;;2.70;1.70;;;;;;;;;;5023607;28;20229;-57
2022/02/06 17:14:43;;;;;;;2.50;1.80;;;;;;;;;;5009763;28;20590;-58
2022/02/06 17:17:10;;;;;;;3.67;1.80;;;;;;;;;;5016440;28;20657;-57
2022/02/06 17:19:36;;;;;;;4.53;2.43;;;;;;;;;;5004905;28;20212;-59
2022/02/06 17:22:02;;;;;;;3.27;1.80;;;;;;;;;;5005701;28;20201;-58
2022/02/06 17:24:31;;;;;;;2.00;1.67;;;;;;;;;;4989854;28;20194;-58
2022/02/06 17:27:00;;;;;;;3.93;2.07;;;;;;;;;;5014031;28;20582;-58
2022/02/06 17:29:26;;;;;;;1.97;1.53;;;;;;;;;;5000582;28;20192;-59
2022/02/06 17:31:52;;;;;;;3.83;2.03;;;;;;;;;;4995147;28;20189;-58
2022/02/06 17:34:43;;;;;;;5.67;1.50;;;;;;;;;;4997465;28;20182;-58
2022/02/06 17:37:23;;;;;;;4.80;1.73;;;;;;;;;;4987056;28;20229;-59
2022/02/06 17:39:52;;;;;;;4.30;2.10;;;;;;;;;;4998019;28;20537;-59
2022/02/06 17:42:22;;;;;;;3.47;1.70;;;;;;;;;;5002450;28;20268;-57
2022/02/06 17:44:48;;;;;;;4.07;1.73;;;;;;;;;;4993924;28;20197;-59
2022/02/06 17:47:14;;;;;;;3.93;1.60;;;;;;;;;;4994176;28;20273;-58
2022/02/06 17:49:41;;;;;;;1.87;1.20;;;;;;;;;;4998233;28;20233;-59
2022/02/06 17:52:11;;;;;;;2.53;1.20;;;;;;;;;;5012046;28;20213;-58
2022/02/06 17:54:42;;;;;;;2.00;1.20;;;;;;;;;;5006485;28;20270;-58
2022/02/06 17:57:08;;;;;;;1.10;0.90;;;;;;;;;;5013707;28;20202;-58
2022/02/06 17:59:34;;;;;;;1.27;0.90;;;;;;;;;;5019149;28;20587;-58
2022/02/06 18:02:11;;;;;;;1.03;0.97;;;;;;;;;;5013092;28;20225;-58